Time;durP1;ratioP1;P1;durP2;ratioP2;P2;SDS_P1;SDS_P2;PMS_P1;PMS_P2;Temp;Humidity;BMP_temperature;BMP_pressure;BME280_temperature;BME280_humidity;BME280_pressure;Samples;Min_cycle;Max_cycle;Signal;HPM_P1;HPM_P2
2023/10/27 00:00:37;;;;;;;8.32;4.35;;;;;;;;;;4933837;28;20504;-77
2023/10/27 00:03:03;;;;;;;3.97;2.67;;;;;;;;;;4956166;28;20043;-77
2023/10/27 00:05:28;;;;;;;3.92;2.35;;;;;;;;;;4961773;28;20043;-77
2023/10/27 00:07:53;;;;;;;6.78;3.97;;;;;;;;;;4955475;28;20045;-77
2023/10/27 00:10:19;;;;;;;6.60;3.13;;;;;;;;;;4963328;28;20043;-77
2023/10/27 00:12:44;;;;;;;10.00;4.28;;;;;;;;;;4956088;28;20462;-77
2023/10/27 00:15:10;;;;;;;10.70;4.50;;;;;;;;;;4959969;28;20066;-77
2023/10/27 00:17:35;;;;;;;7.72;4.68;;;;;;;;;;4957757;28;20045;-77
2023/10/27 00:20:02;;;;;;;6.97;4.13;;;;;;;;;;4960187;28;20522;-77
2023/10/27 00:22:28;;;;;;;7.55;4.65;;;;;;;;;;4955717;28;20038;-77
2023/10/27 00:24:53;;;;;;;6.30;3.63;;;;;;;;;;4967026;28;20067;-76
2023/10/27 00:27:20;;;;;;;7.82;4.22;;;;;;;;;;4951710;28;20059;-77
2023/10/27 00:29:45;;;;;;;8.95;5.85;;;;;;;;;;4943071;28;20037;-77
2023/10/27 00:32:11;;;;;;;9.90;6.13;;;;;;;;;;4978987;28;20042;-76
2023/10/27 00:34:36;;;;;;;6.90;4.55;;;;;;;;;;4963500;28;20046;-77
2023/10/27 00:37:02;;;;;;;8.35;4.35;;;;;;;;;;4940063;28;20030;-76
2023/10/27 00:39:27;;;;;;;7.38;4.57;;;;;;;;;;4954610;28;20499;-76
2023/10/27 00:41:53;;;;;;;6.78;3.90;;;;;;;;;;4955814;28;20047;-77
2023/10/27 00:44:18;;;;;;;8.00;4.20;;;;;;;;;;4935326;28;20394;-77
2023/10/27 00:46:44;;;;;;;7.78;4.78;;;;;;;;;;4970082;28;20050;-77
2023/10/27 00:49:11;;;;;;;9.90;5.03;;;;;;;;;;4949766;28;20516;-77
2023/10/27 00:51:37;;;;;;;7.40;4.82;;;;;;;;;;4940190;28;20778;-77
2023/10/27 00:54:02;;;;;;;7.93;5.03;;;;;;;;;;4940603;28;20043;-77
2023/10/27 00:56:29;;;;;;;6.75;4.13;;;;;;;;;;4953269;28;20066;-77
2023/10/27 00:58:56;;;;;;;6.05;3.90;;;;;;;;;;4951747;28;20072;-77
2023/10/27 01:01:21;;;;;;;8.40;5.00;;;;;;;;;;4943619;28;20051;-76
2023/10/27 01:03:47;;;;;;;9.18;5.03;;;;;;;;;;4955897;28;20062;-77
2023/10/27 01:06:12;;;;;;;6.10;4.07;;;;;;;;;;4947177;28;20043;-77
2023/10/27 01:08:38;;;;;;;7.97;4.40;;;;;;;;;;4952827;28;20422;-76
2023/10/27 01:11:03;;;;;;;10.25;5.25;;;;;;;;;;4944571;28;20084;-77
2023/10/27 01:13:29;;;;;;;8.13;4.38;;;;;;;;;;4938734;28;20084;-77
2023/10/27 01:15:54;;;;;;;8.60;5.10;;;;;;;;;;4961327;28;20540;-77
2023/10/27 01:18:20;;;;;;;9.20;4.95;;;;;;;;;;4969311;28;20096;-77
2023/10/27 01:20:45;;;;;;;7.60;3.95;;;;;;;;;;4970556;28;20050;-77
2023/10/27 01:23:11;;;;;;;7.10;4.30;;;;;;;;;;4941729;28;20062;-77
2023/10/27 01:25:36;;;;;;;6.55;3.78;;;;;;;;;;4954455;28;20038;-77
2023/10/27 01:28:02;;;;;;;7.82;3.83;;;;;;;;;;4947078;28;20059;-76
2023/10/27 01:30:28;;;;;;;9.38;5.05;;;;;;;;;;4945640;28;20042;-76
2023/10/27 01:32:53;;;;;;;8.93;5.03;;;;;;;;;;4970937;28;20451;-77
2023/10/27 01:35:19;;;;;;;8.65;4.72;;;;;;;;;;4944018;28;20050;-77
2023/10/27 01:37:44;;;;;;;5.18;3.35;;;;;;;;;;4957539;28;20035;-77
2023/10/27 01:40:10;;;;;;;6.45;3.03;;;;;;;;;;4938721;28;20039;-77
2023/10/27 01:42:36;;;;;;;4.43;2.85;;;;;;;;;;4937537;28;20566;-77
2023/10/27 01:45:04;;;;;;;7.75;4.47;;;;;;;;;;4952594;28;20043;-78
2023/10/27 01:47:29;;;;;;;7.95;4.70;;;;;;;;;;4934777;28;20503;-77
2023/10/27 01:49:55;;;;;;;9.95;5.43;;;;;;;;;;4935724;28;20045;-77
2023/10/27 01:52:21;;;;;;;5.47;3.05;;;;;;;;;;4947000;28;20388;-77
2023/10/27 01:54:46;;;;;;;11.02;5.35;;;;;;;;;;4947391;28;20039;-77
2023/10/27 01:57:11;;;;;;;7.50;4.30;;;;;;;;;;4951991;28;20050;-77
2023/10/27 01:59:37;;;;;;;9.20;4.95;;;;;;;;;;4952007;28;20043;-76
2023/10/27 02:02:03;;;;;;;8.82;4.57;;;;;;;;;;4979781;28;20050;-76
2023/10/27 02:04:28;;;;;;;9.70;5.45;;;;;;;;;;4954098;28;20039;-76
2023/10/27 02:06:55;;;;;;;7.95;4.68;;;;;;;;;;4952669;28;20466;-77
2023/10/27 02:09:20;;;;;;;6.57;3.83;;;;;;;;;;4944167;28;20121;-77
2023/10/27 02:11:46;;;;;;;6.53;4.10;;;;;;;;;;4958934;28;20137;-77
2023/10/27 02:14:12;;;;;;;8.45;4.80;;;;;;;;;;4945689;28;20118;-77
2023/10/27 02:16:37;;;;;;;9.80;5.40;;;;;;;;;;4947425;28;20062;-77
2023/10/27 02:19:03;;;;;;;9.68;4.90;;;;;;;;;;4947280;28;20518;-78
2023/10/27 02:21:29;;;;;;;9.25;5.20;;;;;;;;;;4961172;28;20561;-77
2023/10/27 02:23:54;;;;;;;7.20;3.97;;;;;;;;;;4947275;28;20542;-77
2023/10/27 02:26:19;;;;;;;4.55;2.80;;;;;;;;;;4971023;28;20042;-76
2023/10/27 02:28:45;;;;;;;6.53;3.70;;;;;;;;;;4952650;28;20035;-79
2023/10/27 02:31:10;;;;;;;7.07;3.53;;;;;;;;;;4964480;28;20142;-76
2023/10/27 02:33:36;;;;;;;9.35;5.25;;;;;;;;;;4956498;28;20046;-77
2023/10/27 02:36:02;;;;;;;8.90;5.60;;;;;;;;;;4956340;28;20042;-78
2023/10/27 02:38:27;;;;;;;7.97;4.55;;;;;;;;;;4959589;28;20038;-77
2023/10/27 02:40:53;;;;;;;9.10;4.45;;;;;;;;;;4968686;28;20041;-78
2023/10/27 02:43:19;;;;;;;9.48;5.30;;;;;;;;;;4963666;28;20420;-76
2023/10/27 02:45:44;;;;;;;10.73;6.00;;;;;;;;;;4940724;28;20042;-77
2023/10/27 02:48:10;;;;;;;11.20;5.80;;;;;;;;;;4953549;28;20038;-76
2023/10/27 02:50:35;;;;;;;12.13;5.97;;;;;;;;;;4981584;28;20569;-76
2023/10/27 02:53:00;;;;;;;6.40;3.80;;;;;;;;;;4932740;28;20039;-78
2023/10/27 02:55:26;;;;;;;9.88;4.60;;;;;;;;;;4956503;28;20511;-78
2023/10/27 02:57:51;;;;;;;9.70;5.10;;;;;;;;;;4955705;28;20080;-78
2023/10/27 03:00:19;;;;;;;9.82;5.25;;;;;;;;;;4956856;28;20035;-78
2023/10/27 03:02:44;;;;;;;7.05;4.07;;;;;;;;;;4974503;28;20038;-77
2023/10/27 03:05:09;;;;;;;8.93;4.63;;;;;;;;;;4955551;28;20419;-77
2023/10/27 03:07:35;;;;;;;9.73;5.85;;;;;;;;;;4954172;28;20437;-76
2023/10/27 03:10:00;;;;;;;10.00;4.93;;;;;;;;;;4959153;28;20105;-77
2023/10/27 03:12:26;;;;;;;6.65;3.90;;;;;;;;;;4960718;28;20039;-77
2023/10/27 03:14:51;;;;;;;11.02;5.30;;;;;;;;;;4954647;28;20050;-78
2023/10/27 03:17:16;;;;;;;10.27;5.47;;;;;;;;;;4954573;28;20557;-77
2023/10/27 03:19:45;;;;;;;9.95;4.38;;;;;;;;;;4982896;28;20131;-77
2023/10/27 03:22:10;;;;;;;11.63;4.93;;;;;;;;;;4975535;28;20037;-77
2023/10/27 03:24:36;;;;;;;10.20;5.00;;;;;;;;;;4968273;28;20043;-78
2023/10/27 03:27:01;;;;;;;6.38;3.72;;;;;;;;;;4954776;28;20535;-77
2023/10/27 03:29:27;;;;;;;3.13;2.30;;;;;;;;;;4964083;28;20122;-77
2023/10/27 03:31:52;;;;;;;8.25;4.20;;;;;;;;;;4970971;28;20043;-77
2023/10/27 03:34:18;;;;;;;8.52;4.32;;;;;;;;;;4952824;28;20133;-77
2023/10/27 03:36:43;;;;;;;10.88;5.40;;;;;;;;;;4949572;28;20040;-78
2023/10/27 03:39:08;;;;;;;10.27;5.13;;;;;;;;;;4954953;28;20042;-79
2023/10/27 03:41:34;;;;;;;8.82;5.38;;;;;;;;;;4950223;28;20043;-78
2023/10/27 03:43:59;;;;;;;12.90;5.35;;;;;;;;;;4945843;28;20419;-77
2023/10/27 03:46:25;;;;;;;10.57;5.25;;;;;;;;;;4951680;28;20047;-78
2023/10/27 03:48:50;;;;;;;11.65;5.90;;;;;;;;;;4950358;28;20108;-77
2023/10/27 03:51:15;;;;;;;10.35;5.65;;;;;;;;;;4953359;28;20042;-78
2023/10/27 03:53:41;;;;;;;8.90;4.10;;;;;;;;;;4954791;28;20219;-79
2023/10/27 03:56:07;;;;;;;11.60;6.07;;;;;;;;;;4965638;28;20063;-77
2023/10/27 03:58:32;;;;;;;10.43;5.50;;;;;;;;;;4958476;28;20046;-78
2023/10/27 04:00:58;;;;;;;11.55;6.32;;;;;;;;;;4972881;28;20035;-76
2023/10/27 04:03:23;;;;;;;11.48;6.20;;;;;;;;;;4961940;28;20035;-75
2023/10/27 04:05:48;;;;;;;9.55;5.30;;;;;;;;;;4962811;28;20030;-77
2023/10/27 04:08:14;;;;;;;9.73;5.03;;;;;;;;;;4954612;28;20054;-76
2023/10/27 04:10:39;;;;;;;4.88;2.35;;;;;;;;;;4954898;28;20039;-77
2023/10/27 04:13:07;;;;;;;10.75;5.75;;;;;;;;;;4950124;28;20542;-78
2023/10/27 04:15:33;;;;;;;11.95;6.22;;;;;;;;;;4951426;28;20062;-76
2023/10/27 04:18:00;;;;;;;10.70;5.75;;;;;;;;;;4944478;28;20139;-76
2023/10/27 04:20:25;;;;;;;11.57;5.60;;;;;;;;;;4954639;28;20554;-77
2023/10/27 04:22:50;;;;;;;14.10;6.65;;;;;;;;;;4954444;28;20034;-76
2023/10/27 04:25:16;;;;;;;10.00;5.30;;;;;;;;;;4951716;28;20053;-76
2023/10/27 04:27:42;;;;;;;9.48;5.53;;;;;;;;;;4955078;28;20070;-76
2023/10/27 04:30:08;;;;;;;6.38;4.13;;;;;;;;;;4971005;28;20186;-76
2023/10/27 04:32:38;;;;;;;10.32;5.25;;;;;;;;;;4929958;28;20054;-76
2023/10/27 04:35:04;;;;;;;11.87;6.17;;;;;;;;;;5012662;28;20090;-77
2023/10/27 04:37:32;;;;;;;11.90;6.50;;;;;;;;;;4968378;28;20550;-77
2023/10/27 04:39:59;;;;;;;7.90;4.32;;;;;;;;;;4954488;28;20038;-77
2023/10/27 04:42:25;;;;;;;7.35;4.30;;;;;;;;;;4950568;28;20396;-79
2023/10/27 04:44:50;;;;;;;9.48;5.47;;;;;;;;;;4957630;28;20038;-78
2023/10/27 04:47:16;;;;;;;11.23;4.85;;;;;;;;;;4928509;28;20062;-77
2023/10/27 04:49:41;;;;;;;15.10;6.03;;;;;;;;;;4954373;28;20067;-76
2023/10/27 04:52:07;;;;;;;6.55;3.60;;;;;;;;;;4968699;28;20043;-77
2023/10/27 04:54:34;;;;;;;13.35;6.82;;;;;;;;;;4954821;28;20046;-78
2023/10/27 04:57:03;;;;;;;8.43;4.88;;;;;;;;;;4944920;28;20035;-78
2023/10/27 04:59:32;;;;;;;12.57;6.55;;;;;;;;;;4935271;28;20464;-78
2023/10/27 05:01:58;;;;;;;13.73;6.97;;;;;;;;;;4978612;28;20047;-78
2023/10/27 05:04:25;;;;;;;12.80;7.72;;;;;;;;;;4963097;28;20616;-77
2023/10/27 05:06:50;;;;;;;13.90;6.53;;;;;;;;;;4961297;28;20049;-78
2023/10/27 05:09:18;;;;;;;13.15;7.70;;;;;;;;;;4947929;28;20636;-79
2023/10/27 05:11:45;;;;;;;15.25;8.02;;;;;;;;;;4947031;28;20035;-77
2023/10/27 05:14:12;;;;;;;15.35;8.35;;;;;;;;;;4942193;28;20039;-77
2023/10/27 05:16:38;;;;;;;16.02;7.85;;;;;;;;;;4953505;28;20049;-76
2023/10/27 05:19:04;;;;;;;11.93;6.47;;;;;;;;;;4963314;28;20534;-76
2023/10/27 05:21:29;;;;;;;11.38;5.95;;;;;;;;;;4969635;28;20516;-76
2023/10/27 05:23:56;;;;;;;10.30;5.95;;;;;;;;;;4954612;28;20042;-76
2023/10/27 05:26:22;;;;;;;13.77;7.20;;;;;;;;;;4947645;28;20049;-75
2023/10/27 05:28:48;;;;;;;13.50;7.00;;;;;;;;;;4973404;28;20049;-76
2023/10/27 05:31:13;;;;;;;14.38;7.55;;;;;;;;;;4972050;28;20071;-75
2023/10/27 05:33:38;;;;;;;17.20;9.07;;;;;;;;;;4954032;28;20085;-75
2023/10/27 05:36:04;;;;;;;16.23;8.30;;;;;;;;;;4950040;28;20050;-75
2023/10/27 05:38:30;;;;;;;13.52;7.22;;;;;;;;;;4954319;28;20156;-75
2023/10/27 05:40:55;;;;;;;14.32;7.30;;;;;;;;;;4940913;28;20043;-75
2023/10/27 05:43:21;;;;;;;12.02;6.30;;;;;;;;;;4952239;28;20105;-75
2023/10/27 05:45:46;;;;;;;15.30;8.10;;;;;;;;;;4973517;28;20028;-75
2023/10/27 05:48:11;;;;;;;12.98;7.22;;;;;;;;;;4951325;28;20050;-75
2023/10/27 05:50:37;;;;;;;14.00;7.45;;;;;;;;;;4951843;28;20132;-75
2023/10/27 05:53:03;;;;;;;15.80;8.50;;;;;;;;;;4967808;28;20032;-75
2023/10/27 05:55:29;;;;;;;13.77;7.65;;;;;;;;;;4943377;28;20046;-75
2023/10/27 05:57:54;;;;;;;12.60;6.35;;;;;;;;;;4959663;28;20833;-75
2023/10/27 06:00:21;;;;;;;13.82;6.78;;;;;;;;;;4956714;28;20047;-75
2023/10/27 06:02:48;;;;;;;14.85;7.95;;;;;;;;;;4957423;28;20066;-75
2023/10/27 06:05:15;;;;;;;15.48;8.57;;;;;;;;;;4957191;28;20128;-75
2023/10/27 06:07:40;;;;;;;12.75;7.47;;;;;;;;;;4956777;28;20042;-75
2023/10/27 06:10:06;;;;;;;11.88;6.70;;;;;;;;;;4944999;28;20038;-75
2023/10/27 06:12:32;;;;;;;11.65;6.35;;;;;;;;;;4951805;28;20184;-75
2023/10/27 06:14:57;;;;;;;10.77;5.28;;;;;;;;;;4956554;28;20094;-75
2023/10/27 06:17:23;;;;;;;13.57;7.13;;;;;;;;;;4971554;28;20388;-75
2023/10/27 06:19:48;;;;;;;14.52;7.07;;;;;;;;;;4978197;28;20042;-75
2023/10/27 06:22:14;;;;;;;13.40;7.18;;;;;;;;;;4999048;28;20035;-75
2023/10/27 06:24:40;;;;;;;12.00;6.72;;;;;;;;;;4946086;28;20089;-75
2023/10/27 06:27:05;;;;;;;12.45;6.93;;;;;;;;;;4980640;28;20042;-75
2023/10/27 06:29:31;;;;;;;9.68;5.15;;;;;;;;;;4956412;28;20043;-75
2023/10/27 06:31:56;;;;;;;11.35;5.47;;;;;;;;;;4954745;28;20103;-75
2023/10/27 06:34:22;;;;;;;12.43;6.28;;;;;;;;;;4952534;28;20049;-75
2023/10/27 06:36:47;;;;;;;12.73;6.40;;;;;;;;;;4952964;28;20096;-75
2023/10/27 06:39:13;;;;;;;13.18;6.88;;;;;;;;;;4946095;28;20045;-75
2023/10/27 06:41:39;;;;;;;15.18;6.38;;;;;;;;;;4955926;28;20050;-75
2023/10/27 06:44:04;;;;;;;13.15;6.80;;;;;;;;;;4956419;28;20031;-75
2023/10/27 06:46:31;;;;;;;11.30;7.15;;;;;;;;;;4954163;28;20061;-75
2023/10/27 06:48:56;;;;;;;8.45;4.90;;;;;;;;;;4956356;28;20116;-75
2023/10/27 06:51:21;;;;;;;9.82;5.13;;;;;;;;;;4957956;28;20035;-75
2023/10/27 06:53:47;;;;;;;10.38;5.80;;;;;;;;;;4943337;28;20054;-75
2023/10/27 06:56:12;;;;;;;11.27;5.97;;;;;;;;;;4965894;28;20035;-75
2023/10/27 06:58:38;;;;;;;8.85;5.32;;;;;;;;;;4959372;28;20062;-76
2023/10/27 07:01:07;;;;;;;10.48;6.00;;;;;;;;;;4964588;28;20121;-75
2023/10/27 07:03:34;;;;;;;11.27;5.93;;;;;;;;;;4968728;28;20040;-75
2023/10/27 07:06:00;;;;;;;11.20;5.90;;;;;;;;;;4957013;28;20041;-76
2023/10/27 07:08:25;;;;;;;10.02;5.13;;;;;;;;;;4969784;28;20720;-75
2023/10/27 07:10:57;;;;;;;7.68;4.90;;;;;;;;;;4961672;28;20114;-76
2023/10/27 07:13:23;;;;;;;12.50;6.20;;;;;;;;;;4959825;28;20038;-75
2023/10/27 07:15:49;;;;;;;13.30;6.75;;;;;;;;;;4976230;28;20038;-76
2023/10/27 07:18:14;;;;;;;15.38;6.95;;;;;;;;;;4967003;28;20087;-75
2023/10/27 07:20:40;;;;;;;15.15;7.65;;;;;;;;;;4968944;28;20561;-77
2023/10/27 07:23:06;;;;;;;8.05;4.63;;;;;;;;;;4957571;28;20046;-76
2023/10/27 07:25:31;;;;;;;14.57;7.22;;;;;;;;;;4953285;28;20089;-76
2023/10/27 07:27:57;;;;;;;11.98;6.00;;;;;;;;;;4957193;28;20380;-76
2023/10/27 07:30:22;;;;;;;17.95;7.32;;;;;;;;;;4960657;28;20073;-77
2023/10/27 07:32:48;;;;;;;16.50;8.68;;;;;;;;;;4964797;28;20430;-76
2023/10/27 07:35:13;;;;;;;18.40;8.40;;;;;;;;;;4929341;28;20041;-76
2023/10/27 07:37:39;;;;;;;16.80;8.30;;;;;;;;;;4960419;28;20110;-76
2023/10/27 07:40:06;;;;;;;15.85;7.68;;;;;;;;;;4966767;28;20038;-76
2023/10/27 07:42:32;;;;;;;15.25;7.30;;;;;;;;;;4947143;28;20725;-76
2023/10/27 07:44:58;;;;;;;14.82;7.40;;;;;;;;;;4958033;28;20069;-76
2023/10/27 07:47:24;;;;;;;14.25;7.07;;;;;;;;;;4968758;28;20129;-77
2023/10/27 07:49:49;;;;;;;11.00;5.97;;;;;;;;;;4944290;28;20047;-76
2023/10/27 07:52:14;;;;;;;16.55;8.57;;;;;;;;;;4960504;28;20586;-76
2023/10/27 07:54:40;;;;;;;15.73;7.63;;;;;;;;;;4971351;28;20039;-76
2023/10/27 07:57:05;;;;;;;15.95;7.53;;;;;;;;;;4939046;28;20038;-77
2023/10/27 07:59:31;;;;;;;14.15;7.65;;;;;;;;;;4956677;28;20108;-75
2023/10/27 08:01:59;;;;;;;11.65;6.00;;;;;;;;;;4963038;28;20031;-76
2023/10/27 08:04:24;;;;;;;16.25;7.63;;;;;;;;;;4932820;28;20535;-76
2023/10/27 08:06:51;;;;;;;14.23;6.70;;;;;;;;;;4971345;28;20125;-76
2023/10/27 08:09:17;;;;;;;7.43;4.63;;;;;;;;;;4946289;28;20043;-76
2023/10/27 08:11:42;;;;;;;14.57;7.35;;;;;;;;;;4950379;28;20515;-76
2023/10/27 08:14:08;;;;;;;16.00;7.88;;;;;;;;;;4964939;28;20651;-76
2023/10/27 08:16:33;;;;;;;16.23;8.20;;;;;;;;;;4954870;28;20053;-75
2023/10/27 08:18:59;;;;;;;8.45;5.03;;;;;;;;;;4954338;28;20077;-76
2023/10/27 08:21:25;;;;;;;14.70;7.72;;;;;;;;;;4944192;28;20120;-76
2023/10/27 08:23:51;;;;;;;12.98;7.10;;;;;;;;;;4958020;28;20050;-76
2023/10/27 08:26:16;;;;;;;12.80;7.15;;;;;;;;;;4957098;28;20042;-76
2023/10/27 08:28:42;;;;;;;14.18;7.88;;;;;;;;;;4941712;28;20087;-76
2023/10/27 08:31:07;;;;;;;14.82;7.22;;;;;;;;;;4939868;28;20407;-75
2023/10/27 08:33:32;;;;;;;14.73;7.20;;;;;;;;;;4961892;28;20121;-75
2023/10/27 08:36:04;;;;;;;14.98;6.85;;;;;;;;;;4969598;28;20121;-75
2023/10/27 08:38:31;;;;;;;14.35;7.07;;;;;;;;;;4952034;28;20050;-75
2023/10/27 08:40:57;;;;;;;15.82;7.30;;;;;;;;;;4950822;28;20043;-75
2023/10/27 08:43:22;;;;;;;12.80;6.80;;;;;;;;;;4953013;28;20050;-75
2023/10/27 08:45:50;;;;;;;17.48;7.15;;;;;;;;;;4958579;28;20042;-75
2023/10/27 08:48:15;;;;;;;16.55;7.43;;;;;;;;;;4959925;28;20459;-76
2023/10/27 08:50:40;;;;;;;14.30;6.78;;;;;;;;;;4938384;28;20434;-76
2023/10/27 08:53:09;;;;;;;19.02;9.13;;;;;;;;;;4959336;28;20034;-75
2023/10/27 08:55:35;;;;;;;17.52;8.77;;;;;;;;;;4959931;28;20046;-75
2023/10/27 08:58:01;;;;;;;21.17;8.77;;;;;;;;;;4964923;28;20209;-75
2023/10/27 09:00:26;;;;;;;17.58;9.38;;;;;;;;;;4943692;28;20047;-75
2023/10/27 09:02:52;;;;;;;17.73;8.30;;;;;;;;;;4951754;28;20043;-76
2023/10/27 09:05:17;;;;;;;17.33;8.50;;;;;;;;;;4951165;28;20070;-75
2023/10/27 09:07:43;;;;;;;19.60;9.60;;;;;;;;;;4962473;28;20060;-75
2023/10/27 09:10:09;;;;;;;17.67;8.55;;;;;;;;;;4953200;28;20049;-75
2023/10/27 09:12:39;;;;;;;20.45;9.52;;;;;;;;;;4951245;28;20038;-75
2023/10/27 09:15:06;;;;;;;19.00;8.82;;;;;;;;;;4965655;28;20039;-75
2023/10/27 09:17:51;;;;;;;14.90;7.22;;;;;;;;;;4978471;28;20042;-75
2023/10/27 09:20:18;;;;;;;18.08;8.63;;;;;;;;;;4942036;28;20045;-75
2023/10/27 09:23:06;;;;;;;19.40;8.82;;;;;;;;;;4945802;28;20785;-75
2023/10/27 09:25:33;;;;;;;22.10;9.93;;;;;;;;;;4936607;28;20054;-75
2023/10/27 09:28:00;;;;;;;20.25;9.18;;;;;;;;;;4954843;28;20034;-75
2023/10/27 09:30:28;;;;;;;22.20;9.88;;;;;;;;;;4952026;28;20122;-75
2023/10/27 09:32:55;;;;;;;25.20;10.20;;;;;;;;;;4968372;28;20038;-75
2023/10/27 09:35:22;;;;;;;21.27;10.10;;;;;;;;;;4957521;28;20039;-75
2023/10/27 09:37:48;;;;;;;22.33;10.18;;;;;;;;;;4961230;28;20132;-75
2023/10/27 09:40:15;;;;;;;21.67;10.38;;;;;;;;;;4949135;28;20041;-75
2023/10/27 09:42:41;;;;;;;24.63;10.52;;;;;;;;;;4978828;28;20047;-75
2023/10/27 09:45:13;;;;;;;24.40;9.38;;;;;;;;;;4939326;28;20031;-75
2023/10/27 09:47:41;;;;;;;20.80;9.90;;;;;;;;;;4949321;28;20104;-75
2023/10/27 09:50:12;;;;;;;25.35;11.73;;;;;;;;;;4953878;28;20042;-75
2023/10/27 09:52:41;;;;;;;23.73;10.20;;;;;;;;;;4969976;28;20693;-75
2023/10/27 09:55:07;;;;;;;20.67;9.88;;;;;;;;;;4957471;28;20549;-75
2023/10/27 09:57:33;;;;;;;24.27;10.65;;;;;;;;;;4952811;28;20038;-76
2023/10/27 10:00:00;;;;;;;22.00;9.85;;;;;;;;;;4949670;28;20042;-75
2023/10/27 10:02:28;;;;;;;18.48;8.95;;;;;;;;;;4948517;28;20051;-75
2023/10/27 10:04:58;;;;;;;23.02;10.75;;;;;;;;;;4929754;28;20565;-75
2023/10/27 10:07:32;;;;;;;7.50;4.55;;;;;;;;;;4956273;28;20047;-75
2023/10/27 10:10:17;;;;;;;24.80;10.60;;;;;;;;;;4959228;28;20174;-75
2023/10/27 10:13:08;;;;;;;16.20;7.57;;;;;;;;;;4948355;28;20062;-75
2023/10/27 10:15:42;;;;;;;18.08;8.95;;;;;;;;;;4939194;28;20069;-75
2023/10/27 10:18:33;;;;;;;20.90;8.98;;;;;;;;;;4959730;28;20654;-75
2023/10/27 10:20:59;;;;;;;20.77;9.18;;;;;;;;;;4935464;28;20122;-75
2023/10/27 10:23:50;;;;;;;13.02;6.70;;;;;;;;;;4969783;28;20137;-75
2023/10/27 10:26:16;;;;;;;15.20;6.40;;;;;;;;;;4944780;28;20547;-75
2023/10/27 10:28:41;;;;;;;19.88;8.75;;;;;;;;;;4946640;28;20049;-75
2023/10/27 10:31:06;;;;;;;13.98;6.95;;;;;;;;;;4960219;28;20492;-75
2023/10/27 10:33:32;;;;;;;13.45;6.68;;;;;;;;;;4970146;28;20039;-75
2023/10/27 10:36:22;;;;;;;19.67;9.07;;;;;;;;;;4940425;28;20173;-75
2023/10/27 10:38:50;;;;;;;19.65;8.93;;;;;;;;;;4927120;28;20664;-75
2023/10/27 10:41:17;;;;;;;11.00;6.43;;;;;;;;;;4947161;28;20046;-75
2023/10/27 10:43:42;;;;;;;11.98;6.53;;;;;;;;;;4957466;28;20514;-75
2023/10/27 10:46:12;;;;;;;15.32;8.27;;;;;;;;;;4959401;28;20125;-75
2023/10/27 10:48:44;;;;;;;22.00;10.38;;;;;;;;;;4942825;28;20047;-75
2023/10/27 10:51:15;;;;;;;22.40;10.40;;;;;;;;;;4948660;28;20097;-75
2023/10/27 10:53:41;;;;;;;24.00;11.35;;;;;;;;;;4968904;28;20039;-75
2023/10/27 10:56:07;;;;;;;19.00;8.82;;;;;;;;;;4960201;28;20699;-75
2023/10/27 10:58:34;;;;;;;21.00;9.57;;;;;;;;;;4964674;28;20043;-75
2023/10/27 11:01:00;;;;;;;9.68;5.22;;;;;;;;;;4966615;28;20039;-75
2023/10/27 11:03:34;;;;;;;18.75;8.40;;;;;;;;;;4954329;28;20043;-75
2023/10/27 11:06:02;;;;;;;9.55;5.45;;;;;;;;;;4938617;28;20058;-75
2023/10/27 11:08:40;;;;;;;17.15;8.27;;;;;;;;;;4963308;28;20039;-75
2023/10/27 11:11:07;;;;;;;20.35;10.10;;;;;;;;;;4966962;28;20073;-74
2023/10/27 11:13:43;;;;;;;11.93;6.30;;;;;;;;;;4943126;28;20407;-75
2023/10/27 11:16:23;;;;;;;10.88;6.07;;;;;;;;;;4931645;28;20451;-75
2023/10/27 11:18:57;;;;;;;22.88;10.13;;;;;;;;;;4963774;28;20179;-75
2023/10/27 11:21:24;;;;;;;21.70;10.30;;;;;;;;;;4949397;28;20124;-75
2023/10/27 11:23:51;;;;;;;26.15;11.43;;;;;;;;;;4968701;28;20157;-75
2023/10/27 11:26:20;;;;;;;24.58;11.50;;;;;;;;;;4946827;28;20081;-75
2023/10/27 11:28:46;;;;;;;9.27;5.13;;;;;;;;;;4953312;28;20099;-75
2023/10/27 11:31:22;;;;;;;14.32;6.80;;;;;;;;;;4956703;28;20039;-75
2023/10/27 11:34:03;;;;;;;21.92;9.70;;;;;;;;;;4952862;28;20121;-75
2023/10/27 11:36:43;;;;;;;15.50;7.97;;;;;;;;;;4975989;28;20098;-75
2023/10/27 11:39:15;;;;;;;21.38;10.98;;;;;;;;;;4917745;28;20051;-75
2023/10/27 11:41:47;;;;;;;18.45;8.10;;;;;;;;;;4948783;28;20058;-75
2023/10/27 11:44:12;;;;;;;21.65;9.60;;;;;;;;;;4960630;28;20033;-74
2023/10/27 11:46:44;;;;;;;24.23;10.88;;;;;;;;;;4972744;28;20050;-75
2023/10/27 11:49:10;;;;;;;21.48;11.05;;;;;;;;;;4971145;28;20043;-74
2023/10/27 11:51:35;;;;;;;21.55;9.95;;;;;;;;;;4944978;28;20220;-75
2023/10/27 11:54:01;;;;;;;23.58;10.68;;;;;;;;;;4962546;28;20042;-74
2023/10/27 11:56:26;;;;;;;23.55;11.40;;;;;;;;;;4960919;28;20035;-75
2023/10/27 11:58:51;;;;;;;24.73;11.68;;;;;;;;;;4962982;28;20045;-75
2023/10/27 12:01:17;;;;;;;26.73;11.45;;;;;;;;;;4961927;28;20114;-74
2023/10/27 12:03:43;;;;;;;21.63;9.98;;;;;;;;;;4961679;28;20149;-74
2023/10/27 12:06:08;;;;;;;8.48;5.10;;;;;;;;;;4951912;28;20032;-74
2023/10/27 12:08:34;;;;;;;15.30;7.85;;;;;;;;;;4966854;28;20062;-75
2023/10/27 12:10:59;;;;;;;18.65;9.15;;;;;;;;;;4953993;28;20042;-74
2023/10/27 12:13:25;;;;;;;23.02;11.18;;;;;;;;;;4957645;28;20050;-75
2023/10/27 12:15:50;;;;;;;23.48;10.73;;;;;;;;;;4973087;28;20732;-75
2023/10/27 12:18:16;;;;;;;28.77;12.63;;;;;;;;;;4951493;28;20080;-75
2023/10/27 12:20:42;;;;;;;17.88;8.93;;;;;;;;;;4967016;28;20051;-75
2023/10/27 12:23:09;;;;;;;27.70;13.25;;;;;;;;;;4968773;28;20815;-75
2023/10/27 12:25:35;;;;;;;25.13;12.38;;;;;;;;;;4953894;28;20097;-75
2023/10/27 12:28:01;;;;;;;27.65;12.07;;;;;;;;;;4948663;28;20039;-75
2023/10/27 12:30:26;;;;;;;24.27;11.50;;;;;;;;;;4959557;28;20114;-75
2023/10/27 12:32:53;;;;;;;27.65;12.85;;;;;;;;;;4952905;28;20069;-75
2023/10/27 12:35:21;;;;;;;19.02;9.25;;;;;;;;;;4954690;28;20113;-74
2023/10/27 12:37:47;;;;;;;23.92;11.10;;;;;;;;;;4970656;28;20066;-75
2023/10/27 12:40:13;;;;;;;15.50;8.88;;;;;;;;;;4959391;28;20069;-75
2023/10/27 12:42:39;;;;;;;18.83;9.60;;;;;;;;;;4945015;28;20084;-75
2023/10/27 12:45:05;;;;;;;24.13;11.52;;;;;;;;;;4962583;28;20034;-75
2023/10/27 12:47:30;;;;;;;23.95;11.68;;;;;;;;;;4957464;28;20066;-75
2023/10/27 12:49:56;;;;;;;19.02;9.52;;;;;;;;;;4960283;28;20136;-75
2023/10/27 12:52:21;;;;;;;17.33;8.80;;;;;;;;;;4959512;28;20066;-75
2023/10/27 12:54:47;;;;;;;8.75;6.00;;;;;;;;;;4959540;28;20035;-75
2023/10/27 12:57:12;;;;;;;17.83;9.43;;;;;;;;;;4958845;28;20093;-75
2023/10/27 12:59:37;;;;;;;19.25;10.88;;;;;;;;;;4978298;28;20137;-76
2023/10/27 13:02:03;;;;;;;23.80;10.73;;;;;;;;;;4944384;28;20042;-75
2023/10/27 13:04:29;;;;;;;25.58;11.65;;;;;;;;;;4952764;28;20046;-75
2023/10/27 13:06:54;;;;;;;8.13;5.18;;;;;;;;;;4959672;28;20049;-74
2023/10/27 13:09:20;;;;;;;8.93;5.55;;;;;;;;;;4959916;28;20384;-74
2023/10/27 13:11:47;;;;;;;16.67;8.75;;;;;;;;;;4958570;28;20038;-75
2023/10/27 13:14:13;;;;;;;21.33;11.45;;;;;;;;;;4963760;28;20039;-75
2023/10/27 13:16:39;;;;;;;12.75;7.47;;;;;;;;;;4956820;28;20092;-74
2023/10/27 13:19:05;;;;;;;24.60;12.20;;;;;;;;;;4957890;28;20039;-75
2023/10/27 13:21:33;;;;;;;21.83;10.77;;;;;;;;;;4933610;28;20986;-75
2023/10/27 13:23:58;;;;;;;16.10;7.60;;;;;;;;;;4985314;28;20562;-75
2023/10/27 13:26:24;;;;;;;14.80;8.88;;;;;;;;;;4955620;28;20043;-75
2023/10/27 13:28:51;;;;;;;15.20;9.00;;;;;;;;;;4953381;28;20048;-75
2023/10/27 13:31:16;;;;;;;19.50;9.93;;;;;;;;;;4927552;28;20528;-75
2023/10/27 13:33:41;;;;;;;18.02;9.93;;;;;;;;;;4954838;28;20042;-74
2023/10/27 13:36:10;;;;;;;17.13;9.13;;;;;;;;;;4948160;28;20445;-74
2023/10/27 13:38:40;;;;;;;12.27;6.82;;;;;;;;;;4960606;28;20054;-74
2023/10/27 13:41:13;;;;;;;15.67;8.47;;;;;;;;;;4966930;28;20038;-75
2023/10/27 13:43:39;;;;;;;19.15;9.02;;;;;;;;;;4951929;28;20311;-74
2023/10/27 13:46:04;;;;;;;21.38;10.35;;;;;;;;;;4958769;28;20145;-75
2023/10/27 13:48:32;;;;;;;10.65;6.50;;;;;;;;;;4965936;28;20442;-75
2023/10/27 13:51:06;;;;;;;13.95;7.60;;;;;;;;;;4958128;28;20027;-74
2023/10/27 13:53:32;;;;;;;9.63;5.85;;;;;;;;;;4953609;28;20136;-74
2023/10/27 13:55:57;;;;;;;11.68;6.63;;;;;;;;;;4944562;28;20764;-75
2023/10/27 13:58:22;;;;;;;11.85;5.85;;;;;;;;;;4953713;28;20035;-75
2023/10/27 14:00:49;;;;;;;7.40;4.90;;;;;;;;;;4941019;28;20583;-75
2023/10/27 14:03:14;;;;;;;9.45;5.50;;;;;;;;;;4953478;28;20039;-76
2023/10/27 14:05:40;;;;;;;26.52;12.38;;;;;;;;;;4971939;28;20034;-75
2023/10/27 14:08:07;;;;;;;23.38;11.38;;;;;;;;;;4990401;28;20041;-75
2023/10/27 14:10:33;;;;;;;22.08;11.55;;;;;;;;;;4971402;28;20752;-76
2023/10/27 14:12:59;;;;;;;22.27;12.15;;;;;;;;;;4939273;28;20085;-76
2023/10/27 14:15:25;;;;;;;15.73;8.48;;;;;;;;;;4973882;28;20039;-76
2023/10/27 14:17:51;;;;;;;12.32;7.30;;;;;;;;;;5005958;28;20037;-75
2023/10/27 14:20:20;;;;;;;6.47;4.53;;;;;;;;;;4964420;28;20057;-76
2023/10/27 14:22:48;;;;;;;16.30;9.27;;;;;;;;;;4971844;28;20054;-76
2023/10/27 14:25:13;;;;;;;11.10;6.45;;;;;;;;;;4955463;28;20119;-75
2023/10/27 14:27:38;;;;;;;8.75;5.45;;;;;;;;;;4965876;28;20153;-76
2023/10/27 14:30:07;;;;;;;13.23;7.50;;;;;;;;;;4988526;28;20736;-76